logo
Search for airport 
image banner adimage banner adimage banner ad
image banner ad

MMPG - Piedras Negras Aeropuerto Internacional

Located in Piedras Negras, Mexico

ICAO - MMPG, IATA - PDS

Data provided by Airmate  

General information

Coordinates: N28°37'39" W100°32'4"
Elevation is 901 feet MSL.
 
View others Airports in Coahuila

Operational data

Special qualification required
Current time UTC:
Current local time:
Weather
TAF: TAF MMPG 180536Z 1806/1906 00000KT 5SM HZ BKN015 FM181200 00000KT 2SM BR BKN005 OVC010 FM181500 00000KT 3SM HZ BKN010 FM181700 14010KT 6SM HZ SCT030 FM182000 12015KT P6SM SKC
View NOTAMs / SUP AIP / TFR affecting this airport [VIEW]
Communications frequencies: [VIEW]

Runways:

RWY identifierQFULength (ft)Width (ft)SurfaceLDA (ft)
12127°6726105ASP
30307°6726105ASP

Airport contact information

Address: Piedras Negras Mexico

Satellite view of MMPG